PIA831 OPKC-OEJN
Flight info
| Callsign | PIA831 |
|---|---|
| Flight time | N/A |
| Altitude | 36000 |
| Route | MELOM A454 TAPDO G652 TOKRA/N0502F280 Y511 ITRUX/N0493F380 Y511 ASMIS DCT ALPUT M309 VEMEM |
| Aircraft | B77W/H-SDE1E2E3FGHIJ2J3J4J5M1RWXY/LB1D1 |
Departure
| Time | 2026-04-27 13:36 |
|---|---|
| Airport | Jinnah International Airport (OPKC) |
Arrival
| Time | N/A |
|---|---|
| Airport | King Abdulaziz International Airport (OEJN) |
| Time | Latitude | Longitude | Altitude | Speed | Heading |
|---|---|---|---|---|---|
| 2026-04-27 13:06 | 24.90299 | 67.16837 | 106 ft | 0 kts | 125° |
| 2026-04-27 13:27 | 24.90300 | 67.16835 | 106 ft | 3 kts | 125° |
| 2026-04-27 13:27 | 24.90313 | 67.16810 | 107 ft | 4 kts | 110° |
| 2026-04-27 13:27 | 24.90319 | 67.16782 | 106 ft | 4 kts | 85° |
| 2026-04-27 13:28 | 24.90312 | 67.16755 | 105 ft | 4 kts | 49° |
| 2026-04-27 13:28 | 24.90292 | 67.16740 | 104 ft | 4 kts | 0° |
| 2026-04-27 13:28 | 24.90283 | 67.16741 | 105 ft | 0 kts | 345° |
| 2026-04-27 13:30 | 24.90295 | 67.16737 | 104 ft | 4 kts | 344° |
| 2026-04-27 13:31 | 24.90334 | 67.16725 | 105 ft | 8 kts | 344° |
| 2026-04-27 13:31 | 24.90391 | 67.16707 | 107 ft | 9 kts | 344° |
| 2026-04-27 13:31 | 24.90452 | 67.16694 | 108 ft | 9 kts | 8° |
| 2026-04-27 13:31 | 24.90481 | 67.16727 | 107 ft | 6 kts | 60° |
| 2026-04-27 13:32 | 24.90495 | 67.16774 | 107 ft | 7 kts | 74° |
| 2026-04-27 13:32 | 24.90510 | 67.16828 | 107 ft | 8 kts | 73° |
| 2026-04-27 13:32 | 24.90526 | 67.16892 | 107 ft | 9 kts | 74° |
| 2026-04-27 13:32 | 24.90544 | 67.16963 | 107 ft | 10 kts | 74° |
| 2026-04-27 13:33 | 24.90564 | 67.17042 | 107 ft | 11 kts | 74° |
| 2026-04-27 13:33 | 24.90586 | 67.17128 | 107 ft | 12 kts | 74° |
| 2026-04-27 13:33 | 24.90610 | 67.17215 | 107 ft | 12 kts | 73° |
| 2026-04-27 13:33 | 24.90633 | 67.17306 | 107 ft | 13 kts | 75° |
| 2026-04-27 13:34 | 24.90667 | 67.17401 | 107 ft | 14 kts | 51° |
| 2026-04-27 13:34 | 24.90745 | 67.17461 | 108 ft | 14 kts | 32° |
| 2026-04-27 13:34 | 24.90832 | 67.17487 | 109 ft | 13 kts | 349° |
| 2026-04-27 13:34 | 24.90862 | 67.17431 | 110 ft | 9 kts | 261° |
| 2026-04-27 13:35 | 24.90859 | 67.17419 | 110 ft | 0 kts | 254° |
| 2026-04-27 13:35 | 24.90858 | 67.17414 | 109 ft | 6 kts | 254° |
| 2026-04-27 13:35 | 24.90801 | 67.17192 | 110 ft | 74 kts | 254° |
| 2026-04-27 13:35 | 24.90566 | 67.16256 | 109 ft | 177 kts | 256° |
| 2026-04-27 13:36 | 24.90216 | 67.14788 | 615 ft | 216 kts | 256° |
| 2026-04-27 13:36 | 24.89816 | 67.13258 | 1857 ft | 192 kts | 245° |
| 2026-04-27 13:36 | 24.88994 | 67.12180 | 2728 ft | 185 kts | 226° |
| 2026-04-27 13:36 | 24.88000 | 67.11140 | 2945 ft | 209 kts | 227° |
| 2026-04-27 13:37 | 24.86903 | 67.09948 | 3165 ft | 234 kts | 227° |
| 2026-04-27 13:37 | 24.85709 | 67.08622 | 3552 ft | 252 kts | 227° |
| 2026-04-27 13:37 | 24.84463 | 67.07212 | 4146 ft | 260 kts | 228° |
| 2026-04-27 13:37 | 24.83200 | 67.05758 | 4890 ft | 264 kts | 228° |
| 2026-04-27 13:38 | 24.81930 | 67.04279 | 5621 ft | 268 kts | 229° |
| 2026-04-27 13:38 | 24.80657 | 67.02792 | 6306 ft | 273 kts | 229° |
| 2026-04-27 13:38 | 24.79364 | 67.01280 | 7120 ft | 270 kts | 230° |
| 2026-04-27 13:38 | 24.78366 | 66.99613 | 7612 ft | 273 kts | 253° |
| 2026-04-27 13:39 | 24.78108 | 66.97541 | 8288 ft | 274 kts | 273° |
| 2026-04-27 13:39 | 24.78297 | 66.95450 | 9020 ft | 278 kts | 276° |
| 2026-04-27 13:39 | 24.78540 | 66.93299 | 9561 ft | 287 kts | 276° |
| 2026-04-27 13:39 | 24.78796 | 66.91092 | 10088 ft | 296 kts | 276° |
| 2026-04-27 13:40 | 24.79061 | 66.88752 | 10291 ft | 320 kts | 276° |
| 2026-04-27 13:40 | 24.79337 | 66.86224 | 10425 ft | 345 kts | 276° |
| 2026-04-27 13:40 | 24.79628 | 66.83518 | 10659 ft | 365 kts | 276° |
| 2026-04-27 13:40 | 24.79924 | 66.80742 | 11197 ft | 374 kts | 277° |
| 2026-04-27 13:41 | 24.80488 | 66.77923 | 11750 ft | 381 kts | 288° |
| 2026-04-27 13:41 | 24.81380 | 66.75164 | 12548 ft | 385 kts | 290° |
| 2026-04-27 13:41 | 24.82334 | 66.72386 | 13332 ft | 390 kts | 290° |
| 2026-04-27 13:41 | 24.83300 | 66.69594 | 14162 ft | 391 kts | 290° |
| 2026-04-27 13:42 | 24.84259 | 66.66785 | 14941 ft | 393 kts | 290° |
| 2026-04-27 13:42 | 24.85215 | 66.63944 | 15672 ft | 397 kts | 290° |
| 2026-04-27 13:42 | 24.86167 | 66.61077 | 16410 ft | 401 kts | 289° |
| 2026-04-27 13:42 | 24.87107 | 66.58221 | 17137 ft | 404 kts | 289° |
| 2026-04-27 13:43 | 24.88062 | 66.55299 | 17882 ft | 407 kts | 289° |
| 2026-04-27 13:43 | 24.89021 | 66.52351 | 18544 ft | 410 kts | 289° |
| 2026-04-27 13:43 | 24.89987 | 66.49381 | 19188 ft | 413 kts | 289° |
| 2026-04-27 13:43 | 24.90957 | 66.46390 | 19856 ft | 416 kts | 289° |
| 2026-04-27 13:44 | 24.91933 | 66.43378 | 20527 ft | 418 kts | 288° |
| 2026-04-27 13:44 | 24.92915 | 66.40350 | 21198 ft | 421 kts | 288° |
| 2026-04-27 13:44 | 24.93901 | 66.37303 | 21839 ft | 424 kts | 288° |
| 2026-04-27 13:44 | 24.94895 | 66.34228 | 22457 ft | 428 kts | 288° |
| 2026-04-27 13:45 | 24.95884 | 66.31167 | 23073 ft | 431 kts | 288° |
| 2026-04-27 13:45 | 24.96894 | 66.28043 | 23600 ft | 434 kts | 288° |
| 2026-04-27 13:45 | 24.97910 | 66.24893 | 24108 ft | 437 kts | 288° |
| 2026-04-27 13:45 | 24.98930 | 66.21732 | 24640 ft | 439 kts | 288° |
| 2026-04-27 13:46 | 24.99956 | 66.18549 | 25159 ft | 442 kts | 288° |
| 2026-04-27 13:46 | 25.00984 | 66.15358 | 25644 ft | 445 kts | 288° |
| 2026-04-27 13:46 | 25.02022 | 66.12132 | 26110 ft | 448 kts | 288° |
| 2026-04-27 13:46 | 25.03064 | 66.08889 | 26582 ft | 451 kts | 288° |
| 2026-04-27 13:47 | 25.04114 | 66.05622 | 27038 ft | 453 kts | 288° |
| 2026-04-27 13:47 | 25.05154 | 66.02381 | 27489 ft | 456 kts | 288° |
| 2026-04-27 13:47 | 25.06179 | 65.99184 | 27912 ft | 459 kts | 288° |
| 2026-04-27 13:47 | 25.07244 | 65.95859 | 28321 ft | 461 kts | 288° |
| 2026-04-27 13:48 | 25.08316 | 65.92511 | 28712 ft | 464 kts | 288° |
| 2026-04-27 13:48 | 25.09393 | 65.89145 | 29092 ft | 467 kts | 288° |
| 2026-04-27 13:48 | 25.10474 | 65.85761 | 29470 ft | 469 kts | 288° |
| 2026-04-27 13:48 | 25.11559 | 65.82365 | 29855 ft | 470 kts | 288° |
| 2026-04-27 13:49 | 25.12642 | 65.78968 | 30285 ft | 468 kts | 288° |
| 2026-04-27 13:49 | 25.13721 | 65.75585 | 30714 ft | 467 kts | 288° |
| 2026-04-27 13:49 | 25.14781 | 65.72256 | 31102 ft | 466 kts | 288° |
| 2026-04-27 13:49 | 25.15856 | 65.68876 | 31486 ft | 466 kts | 288° |
| 2026-04-27 13:50 | 25.16929 | 65.65501 | 31854 ft | 466 kts | 288° |
| 2026-04-27 13:50 | 25.18000 | 65.62129 | 32240 ft | 465 kts | 288° |
| 2026-04-27 13:50 | 25.19069 | 65.58759 | 32637 ft | 464 kts | 288° |
| 2026-04-27 13:50 | 25.20134 | 65.55399 | 33040 ft | 463 kts | 288° |
| 2026-04-27 13:51 | 25.21198 | 65.52041 | 33396 ft | 463 kts | 288° |
| 2026-04-27 13:51 | 25.22259 | 65.48687 | 33717 ft | 463 kts | 288° |
| 2026-04-27 13:51 | 25.23305 | 65.45379 | 34035 ft | 462 kts | 288° |
| 2026-04-27 13:51 | 25.24361 | 65.42036 | 34369 ft | 460 kts | 288° |
| 2026-04-27 13:52 | 25.25414 | 65.38699 | 34696 ft | 459 kts | 289° |
| 2026-04-27 13:52 | 25.26462 | 65.35376 | 35004 ft | 458 kts | 289° |
| 2026-04-27 13:52 | 25.27507 | 65.32060 | 35299 ft | 457 kts | 289° |
| 2026-04-27 13:52 | 25.28550 | 65.28746 | 35595 ft | 457 kts | 289° |
| 2026-04-27 13:53 | 25.31671 | 65.18814 | 35654 ft | 452 kts | 289° |
| 2026-04-27 13:54 | 25.33707 | 65.12320 | 35668 ft | 449 kts | 289° |
| 2026-04-27 13:54 | 25.35746 | 65.05803 | 35663 ft | 448 kts | 289° |
| 2026-04-27 13:55 | 25.37756 | 64.99366 | 35681 ft | 449 kts | 289° |
| 2026-04-27 13:55 | 25.39794 | 64.92834 | 35677 ft | 450 kts | 289° |
| 2026-04-27 13:56 | 25.41157 | 64.86162 | 35683 ft | 451 kts | 274° |
| 2026-04-27 13:56 | 25.40684 | 64.79229 | 35664 ft | 456 kts | 258° |
| 2026-04-27 13:57 | 25.38847 | 64.72495 | 35676 ft | 459 kts | 255° |
| 2026-04-27 13:57 | 25.36891 | 64.65767 | 35676 ft | 460 kts | 255° |
| 2026-04-27 13:58 | 25.34974 | 64.59057 | 35675 ft | 461 kts | 256° |
| 2026-04-27 13:58 | 25.33075 | 64.52287 | 35664 ft | 461 kts | 256° |
| 2026-04-27 13:59 | 25.31186 | 64.45520 | 35662 ft | 461 kts | 256° |
| 2026-04-27 13:59 | 25.29297 | 64.38759 | 35675 ft | 460 kts | 256° |
| 2026-04-27 14:00 | 25.27419 | 64.32057 | 35670 ft | 459 kts | 256° |
| 2026-04-27 14:00 | 25.26473 | 64.28688 | 35669 ft | 459 kts | 256° |
| 2026-04-27 14:01 | 25.21623 | 64.11463 | 35669 ft | 458 kts | 256° |
| 2026-04-27 14:02 | 25.19726 | 64.04748 | 35655 ft | 458 kts | 256° |
| 2026-04-27 14:02 | 25.17849 | 63.98119 | 35661 ft | 459 kts | 256° |
| 2026-04-27 14:03 | 25.15956 | 63.91442 | 35662 ft | 459 kts | 256° |
| 2026-04-27 14:03 | 25.14120 | 63.84980 | 35660 ft | 460 kts | 255° |
| 2026-04-27 14:04 | 25.12201 | 63.78238 | 35662 ft | 461 kts | 255° |
| 2026-04-27 14:04 | 25.10276 | 63.71490 | 35650 ft | 461 kts | 256° |
| 2026-04-27 14:05 | 25.08345 | 63.64734 | 35660 ft | 462 kts | 255° |
| 2026-04-27 14:05 | 25.07391 | 63.61400 | 35660 ft | 462 kts | 255° |